Report METAR

 

KSJC - San Jose, California, USA
Distance from station: NE 14km
Dati ricevuti: 08/08/2020 04:53
Sereno
Sereno
 Vento da NO
Vento: NO 20 km/h
Temperatura: 22°C
P.to Rugiada: 13°C
Umidità: 57%
Barometro: 1012.5 hPa
Nuvole: Sereno
Visibility: 16 km
2020/08/08 02:53 KSJC 080253Z 32011KT 10SM CLR 22/13 A2990 RMK AO2 SLP124 T02170133 53008
KNUQ - Moffett Nas/Mtn, California, USA
Distance from station: N 14km
Dati ricevuti: 07/08/2020 15:55
DATI Obsoleti
Sereno
Sereno
 Vento da SE
Vento: SE 9 km/h
Temperatura: 15°C
P.to Rugiada: 13°C
Umidità: 88%
Barometro: 1013.5 hPa
Nuvole: Sereno
Visibility: 16 km
2020/08/07 13:55 KNUQ 071355Z AUTO 14005KT 10SM CLR 15/13 A2993 RMK AO2
 
KPAO - Palo Alto, California, USA
Distance from station: NNO 23km
Dati ricevuti: 08/08/2020 01:47
DATI Obsoleti
Sereno
Sereno
 Vento da NNO
Vento: NNO 24 km/h
Temperatura: 24°C
P.to Rugiada: 13°C
Umidità: 50%
Barometro: 1012.2 hPa
Nuvole: Sereno
Visibility: 16 km
2020/08/07 23:47 KPAO 072347Z 34013KT 10SM SKC 24/13 A2989
KRHV - San Jose/Reid, California, USA
Distance from station: ENE 19km
Dati ricevuti: 08/08/2020 04:50
Sereno
Sereno
 Vento da O
Vento: O 15 km/h
Temperatura: 23°C
P.to Rugiada: 14°C
Umidità: 57%
Barometro: 1012.9 hPa
Nuvole: Sereno
Visibility: 16 km
2020/08/08 02:50 KRHV 080250Z 28008KT 10SM SKC 23/14 A2991
 
KOAK - Oakland, California, USA
Distance from station: NNO 50km
Dati ricevuti: 08/08/2020 04:53
Sereno
Sereno
 Vento da ONO
Vento: ONO 20 km/h
Temperatura: 18°C
P.to Rugiada: 13°C
Umidità: 73%
Barometro: 1013.2 hPa
Nuvole: Sereno
Visibility: 16 km
2020/08/08 02:53 KOAK 080253Z 30011KT 10SM CLR 18/13 A2992 RMK AO2 SLP130 T01830133 53003
KSQL - San Carlos Airpo, California, USA
Distance from station: NO 34km
Dati ricevuti: 08/08/2020 05:47
Sereno
Sereno
 Vento da NNO
Vento: NNO 19 km/h
Temperatura: 19°C
P.to Rugiada: 13°C
Umidità: 68%
Barometro: 1013.2 hPa
Nuvole: Sereno
Visibility: 16 km
2020/08/08 03:47 KSQL 080347Z 33010KT 10SM SKC 19/13 A2992 RMK LAST
 
KSFO - San Francisco, California, USA
Distance from station: NO 49km
Dati ricevuti: 08/08/2020 04:56
Few Clouds
Few Clouds
 Vento da ONO
Vento: ONO 26 km/h
Temperatura: 16°C
P.to Rugiada: 12°C
Umidità: 77%
Barometro: 1012.5 hPa
Nuvole: Few Clouds
Visibility: 16 km
Cloud details: Few Clouds 152 m
2020/08/08 02:56 KSFO 080256Z 30014KT 10SM FEW005 16/12 A2990 RMK AO2 SLP126 T01610122 53004
KE16 - San Martin, California, USA
Distance from station: ESE 43km
Dati ricevuti: 08/08/2020 05:10
Sereno
Sereno
 Vento da SE
Vento: SE 19 km/h
Temperatura: 18°C
P.to Rugiada: 12°C
Umidità: 68%
Barometro: 1013.9 hPa
Nuvole: Sereno
Visibility: 16 km
2020/08/08 03:10 KE16 080310Z AUTO 13010KT 10SM CLR 18/12 A2994 RMK AO2 PWINO PNO
 
KWVI - Watsonville, California, USA
Distance from station: SSE 44km
Dati ricevuti: 08/08/2020 05:25
Few Clouds
Few Clouds
 Vento da SO
Vento: SO 7 km/h
Temperatura: 27°C
Indice di Calore: 27°C
P.to Rugiada: 13°C
Umidità: 42%
Barometro: 1014.6 hPa
Nuvole: Few Clouds
Visibility: 16 km
Cloud details: Few Clouds 274 m
2020/08/08 03:25 KWVI 080325Z AUTO 23004KT 10SM FEW009 27/13 A2996 RMK AO2 T02670128 $
KHAF - Half Moon Bay, California, USA
Distance from station: ONO 50km
Dati ricevuti: 08/08/2020 05:35
Mist, Coperto
Mist, Coperto
 Vento da S
Vento: S 13 km/h
Temperatura: 14°C
P.to Rugiada: 13°C
Umidità: 94%
Barometro: 1014.2 hPa
Summary: Mist
Nuvole: Coperto
Visibility: 8 km
Cloud details: Coperto 213 m
2020/08/08 03:35 KHAF 080335Z AUTO 17007KT 5SM BR OVC007 14/13 A2995 RMK AO2
 
KHWD - Hayward, California, USA
Distance from station: N 44km
Dati ricevuti: 08/08/2020 04:54
Sereno
Sereno
 Vento da NNO
Vento: NNO 15 km/h
Temperatura: 21°C
P.to Rugiada: 12°C
Umidità: 57%
Barometro: 1012.9 hPa
Nuvole: Sereno
Visibility: 16 km
2020/08/08 02:54 KHWD 080254Z 34008KT 10SM CLR 21/12 A2991 RMK AO2 SLP135 T02060122 53006
KLVK - Livermore, California, USA
Distance from station: NNE 51km
Dati ricevuti: 08/08/2020 04:53
Sereno
Sereno
 Vento da O
Vento: O 22 km/h
Temperatura: 25°C
P.to Rugiada: 11°C
Umidità: 42%
Barometro: 1011.9 hPa
Nuvole: Sereno
Visibility: 16 km
2020/08/08 02:53 KLVK 080253Z 28012KT 10SM CLR 25/11 A2988 RMK AO2 SLP112 T02500106 53005